createdAt,value
2023-04-20T00:00:18.006Z,5.43
2023-04-20T00:02:46.668Z,5.80
2023-04-20T00:05:16.709Z,5.40
2023-04-20T00:07:45.194Z,6.43
2023-04-20T00:10:13.529Z,7.03
2023-04-20T00:12:43.512Z,8.07
2023-04-20T00:15:12.212Z,8.63
2023-04-20T00:17:40.795Z,8.67
2023-04-20T00:20:10.112Z,8.93
2023-04-20T00:22:39.915Z,9.20
2023-04-20T00:25:08.937Z,8.57
2023-04-20T00:27:37.320Z,8.53
2023-04-20T00:30:05.995Z,8.43
2023-04-20T00:32:34.430Z,9.00
2023-04-20T00:35:02.891Z,9.20
2023-04-20T00:37:31.765Z,8.87
2023-04-20T00:40:01.645Z,8.20
2023-04-20T00:42:30.344Z,9.63
2023-04-20T00:44:58.758Z,8.83
2023-04-20T00:47:27.232Z,8.80
2023-04-20T00:49:56.458Z,9.87
2023-04-20T00:52:24.907Z,9.20
2023-04-20T00:54:53.327Z,9.27
2023-04-20T00:57:24.559Z,9.57
2023-04-20T00:59:52.894Z,8.60
2023-04-20T01:02:21.693Z,7.73
2023-04-20T01:04:50.202Z,8.07
2023-04-20T01:07:18.495Z,8.50
2023-04-20T01:09:46.928Z,8.13
2023-04-20T01:12:15.297Z,7.63
2023-04-20T01:14:45.097Z,8.10
2023-04-20T01:17:15.140Z,7.60
2023-04-20T01:19:44.936Z,7.63
2023-04-20T01:22:17.156Z,7.37
2023-04-20T01:24:45.688Z,6.90
2023-04-20T01:27:14.591Z,6.50
2023-04-20T01:29:42.928Z,6.60
2023-04-20T01:32:11.373Z,7.43
2023-04-20T01:34:40.043Z,6.13
2023-04-20T01:37:08.479Z,6.77
2023-04-20T01:39:38.676Z,9.20
2023-04-20T01:42:07.207Z,6.90
2023-04-20T01:44:35.757Z,8.00
2023-04-20T01:47:04.231Z,8.23
2023-04-20T01:49:32.752Z,7.50
2023-04-20T01:52:01.204Z,7.63
2023-04-20T01:54:29.623Z,7.40
2023-04-20T01:56:59.477Z,7.17
2023-04-20T01:59:28.007Z,7.07
2023-04-20T02:01:56.360Z,6.30
2023-04-20T02:04:26.910Z,6.27
2023-04-20T02:06:55.369Z,6.67
2023-04-20T02:09:23.742Z,6.60
2023-04-20T02:11:52.189Z,6.03
2023-04-20T02:14:22.086Z,7.33
2023-04-20T02:16:50.483Z,6.37
2023-04-20T02:19:19.056Z,5.57
2023-04-20T02:21:47.647Z,7.10
2023-04-20T02:24:15.971Z,5.97
2023-04-20T02:26:44.469Z,6.70
2023-04-20T02:29:12.865Z,6.63
2023-04-20T02:31:42.766Z,6.40
2023-04-20T02:34:11.135Z,7.20
2023-04-20T02:36:39.722Z,6.80
2023-04-20T02:39:08.143Z,5.57
2023-04-20T02:41:36.512Z,5.83
2023-04-20T02:44:04.911Z,6.70
2023-04-20T02:46:33.310Z,5.70
2023-04-20T02:49:03.563Z,5.80
2023-04-20T02:51:32.288Z,5.87
2023-04-20T02:54:00.732Z,5.87
2023-04-20T02:56:29.109Z,5.20
2023-04-20T02:58:57.640Z,5.53
2023-04-20T03:01:26.047Z,5.50
2023-04-20T03:03:54.717Z,6.13
2023-04-20T03:06:24.666Z,5.50
2023-04-20T03:08:52.995Z,5.77
2023-04-20T03:11:21.327Z,6.77
2023-04-20T03:13:49.660Z,5.80
2023-04-20T03:16:18.334Z,6.60
2023-04-20T03:18:46.783Z,5.67
2023-04-20T03:21:15.361Z,5.93
2023-04-20T03:23:45.149Z,5.43
2023-04-20T03:26:13.994Z,6.03
2023-04-20T03:28:43.197Z,6.30
2023-04-20T03:31:11.900Z,5.80
2023-04-20T03:33:40.340Z,5.50
2023-04-20T03:36:09.462Z,6.93
2023-04-20T03:38:37.762Z,5.87
2023-04-20T03:41:08.249Z,6.00
2023-04-20T03:43:36.654Z,5.50
2023-04-20T03:46:05.113Z,5.43
2023-04-20T03:48:34.292Z,5.63
2023-04-20T03:51:02.810Z,5.63
2023-04-20T03:53:31.256Z,6.27
2023-04-20T03:55:59.697Z,6.70
2023-04-20T03:58:29.480Z,6.23
2023-04-20T04:01:03.186Z,6.10
2023-04-20T04:03:31.812Z,5.77
2023-04-20T04:06:00.398Z,6.30
2023-04-20T04:08:28.780Z,5.73
2023-04-20T04:10:57.192Z,6.13
2023-04-20T04:13:25.604Z,5.27
2023-04-20T04:15:55.251Z,5.60
2023-04-20T04:18:23.833Z,6.00
2023-04-20T04:20:52.479Z,5.63
2023-04-20T04:23:20.815Z,6.03
2023-04-20T04:25:49.215Z,6.57
2023-04-20T04:28:17.953Z,5.80
2023-04-20T04:30:46.436Z,5.40
2023-04-20T04:33:18.992Z,5.10
2023-04-20T04:35:48.645Z,5.77
2023-04-20T04:38:17.181Z,5.23
2023-04-20T04:40:46.718Z,5.63
2023-04-20T04:43:15.143Z,5.50
2023-04-20T04:45:43.519Z,6.00
2023-04-20T04:48:12.352Z,5.57
2023-04-20T04:50:42.628Z,5.40
2023-04-20T04:53:11.072Z,5.07
2023-04-20T04:55:39.497Z,6.10
2023-04-20T04:58:07.964Z,5.27
2023-04-20T05:00:36.352Z,5.00
2023-04-20T05:03:05.081Z,5.17
2023-04-20T05:05:33.517Z,5.13
2023-04-20T05:08:03.403Z,5.50
2023-04-20T05:10:31.789Z,5.07
2023-04-20T05:13:00.477Z,4.50
2023-04-20T05:15:29.077Z,4.20
2023-04-20T05:17:57.589Z,4.90
2023-04-20T05:20:26.380Z,4.60
2023-04-20T05:22:54.775Z,4.47
2023-04-20T05:25:24.837Z,4.43
2023-04-20T05:27:53.169Z,4.57
2023-04-20T05:30:22.234Z,5.43
2023-04-20T05:32:52.322Z,5.50
2023-04-20T05:35:21.531Z,5.20
2023-04-20T05:37:50.031Z,5.40
2023-04-20T05:40:18.402Z,5.10
2023-04-20T05:42:48.215Z,5.53
2023-04-20T05:45:16.591Z,5.07
2023-04-20T05:47:53.622Z,5.43
2023-04-20T05:50:22.811Z,5.20
2023-04-20T05:52:51.229Z,4.67
2023-04-20T05:55:22.051Z,4.90
2023-04-20T05:57:52.923Z,4.10
2023-04-20T06:00:23.060Z,4.53
2023-04-20T06:02:54.412Z,4.97
2023-04-20T06:05:23.102Z,5.30
2023-04-20T06:07:51.706Z,4.23
2023-04-20T06:10:19.985Z,4.90
2023-04-20T06:12:48.781Z,4.60
2023-04-20T06:15:18.673Z,4.47
2023-04-20T06:17:47.126Z,4.33
2023-04-20T06:20:16.162Z,4.20
2023-04-20T06:22:45.493Z,4.10
2023-04-20T06:25:13.856Z,3.80
2023-04-20T06:27:42.292Z,4.37
2023-04-20T06:30:11.059Z,4.60
2023-04-20T06:32:40.897Z,4.50
2023-04-20T06:35:09.644Z,3.30
2023-04-20T06:37:38.060Z,5.63
2023-04-20T06:40:08.550Z,4.10
2023-04-20T06:42:37.590Z,4.20
2023-04-20T06:45:06.895Z,3.70
2023-04-20T06:47:35.626Z,3.80
2023-04-20T06:50:09.098Z,3.97
2023-04-20T06:52:38.355Z,3.53
2023-04-20T06:55:07.169Z,3.93
2023-04-20T06:57:35.571Z,4.47
2023-04-20T07:00:04.226Z,4.37
2023-04-20T07:02:32.638Z,3.97
2023-04-20T07:05:02.873Z,4.50
2023-04-20T07:07:32.968Z,4.60
2023-04-20T07:10:01.353Z,4.30
2023-04-20T07:12:30.026Z,4.60
2023-04-20T07:14:58.558Z,3.67
2023-04-20T07:17:29.471Z,4.10
2023-04-20T07:19:58.226Z,3.70
2023-04-20T07:22:26.714Z,3.70
2023-04-20T07:24:56.524Z,4.20
2023-04-20T07:27:24.874Z,4.03
2023-04-20T07:29:53.305Z,4.07
2023-04-20T07:32:22.135Z,3.17
2023-04-20T07:34:51.094Z,4.00
2023-04-20T07:37:19.632Z,4.40
2023-04-20T07:39:47.937Z,3.73
2023-04-20T07:42:17.772Z,3.60
2023-04-20T07:44:46.224Z,4.43
2023-04-20T07:47:14.568Z,3.80
2023-04-20T07:49:43.055Z,4.47
2023-04-20T07:52:16.969Z,3.50
2023-04-20T07:54:46.088Z,4.50
2023-04-20T07:57:14.447Z,4.83
2023-04-20T07:59:44.589Z,3.40
2023-04-20T08:02:13.211Z,3.67
2023-04-20T08:04:41.807Z,4.50
2023-04-20T08:07:10.412Z,3.47
2023-04-20T08:09:38.994Z,3.80
2023-04-20T08:12:07.755Z,3.77
2023-04-20T08:14:36.156Z,3.20
2023-04-20T08:17:05.922Z,3.93
2023-04-20T08:19:34.378Z,3.97
2023-04-20T08:22:03.465Z,3.77
2023-04-20T08:24:31.966Z,4.10
2023-04-20T08:27:01.773Z,4.80
2023-04-20T08:29:30.190Z,3.20
2023-04-20T08:31:58.562Z,4.50
2023-04-20T08:34:28.451Z,3.87
2023-04-20T08:36:56.893Z,3.77
2023-04-20T08:39:25.648Z,3.83
2023-04-20T08:41:55.647Z,3.57
2023-04-20T08:44:25.046Z,4.17
2023-04-20T08:46:54.323Z,4.97
2023-04-20T08:49:22.991Z,4.33
2023-04-20T08:51:52.849Z,4.70
2023-04-20T08:54:22.186Z,4.57
2023-04-20T08:56:52.211Z,4.50
2023-04-20T08:59:20.715Z,5.67
2023-04-20T09:01:49.144Z,4.50
2023-04-20T09:04:18.839Z,5.20
2023-04-20T09:06:47.798Z,4.83
2023-04-20T09:09:18.403Z,4.57
2023-04-20T09:11:47.276Z,4.97
2023-04-20T09:14:17.198Z,5.47
2023-04-20T09:16:52.409Z,5.03
2023-04-20T09:19:24.812Z,4.70
2023-04-20T09:21:53.791Z,4.70
2023-04-20T09:24:24.054Z,5.20
2023-04-20T09:26:52.528Z,4.70
2023-04-20T09:29:21.889Z,4.53
2023-04-20T09:31:50.572Z,5.40
2023-04-20T09:34:19.505Z,4.97
2023-04-20T09:36:50.203Z,4.30
2023-04-20T09:39:19.246Z,4.77
2023-04-20T09:41:49.408Z,4.40
2023-04-20T09:44:18.559Z,4.70
2023-04-20T09:46:47.819Z,5.20
2023-04-20T09:49:16.292Z,4.20
2023-04-20T09:51:46.109Z,5.27
2023-04-20T09:54:16.144Z,5.77
2023-04-20T09:56:44.991Z,4.47
2023-04-20T09:59:14.814Z,6.00
2023-04-20T10:01:43.338Z,5.30
2023-04-20T10:04:14.833Z,5.07
2023-04-20T10:06:54.157Z,5.10
2023-04-20T10:09:24.519Z,5.90
2023-04-20T10:11:54.609Z,6.20
2023-04-20T10:14:26.547Z,5.93
2023-04-20T10:17:01.915Z,5.87
2023-04-20T10:19:40.206Z,5.90
2023-04-20T10:22:09.071Z,6.10
2023-04-20T10:24:38.452Z,5.63
2023-04-20T10:27:17.763Z,5.57
2023-04-20T10:29:47.636Z,6.00
2023-04-20T10:32:25.997Z,8.40
2023-04-20T10:35:02.522Z,7.83
2023-04-20T10:37:32.293Z,7.43
2023-04-20T10:40:01.082Z,7.33
2023-04-20T10:42:30.419Z,7.93
2023-04-20T10:45:00.318Z,7.43
2023-04-20T10:47:29.610Z,7.63
2023-04-20T10:50:08.065Z,7.10
2023-04-20T10:52:37.147Z,6.23
2023-04-20T10:55:06.937Z,7.10
2023-04-20T10:57:35.465Z,6.50
2023-04-20T11:00:16.678Z,5.80
2023-04-20T11:02:49.209Z,5.50
2023-04-20T11:05:18.937Z,6.10
2023-04-20T11:07:53.968Z,6.50
2023-04-20T11:10:22.867Z,6.30
2023-04-20T11:12:52.107Z,5.93
2023-04-20T11:15:32.645Z,5.77
2023-04-20T11:18:08.313Z,7.30
2023-04-20T11:20:37.144Z,6.10
2023-04-20T11:23:06.066Z,6.20
2023-04-20T11:25:34.473Z,5.93
2023-04-20T11:28:08.622Z,5.90
2023-04-20T11:30:42.131Z,6.60
2023-04-20T11:33:10.910Z,6.67
2023-04-20T11:35:40.212Z,4.97
2023-04-20T11:38:09.035Z,5.03
2023-04-20T11:40:37.736Z,5.93
2023-04-20T11:43:06.166Z,5.17
2023-04-20T11:45:36.179Z,6.03
2023-04-20T11:48:06.903Z,5.70
2023-04-20T11:50:36.112Z,6.90
2023-04-20T11:53:05.853Z,5.83
2023-04-20T11:55:34.292Z,5.73
2023-04-20T11:58:04.055Z,4.90
2023-04-20T12:00:32.544Z,5.83
2023-04-20T12:03:02.376Z,5.23
2023-04-20T12:05:32.454Z,5.50
2023-04-20T12:08:00.853Z,6.20
2023-04-20T12:10:29.203Z,5.20
2023-04-20T12:12:58.673Z,5.37
2023-04-20T12:15:27.025Z,6.27
2023-04-20T12:17:55.773Z,5.10
2023-04-20T12:20:24.430Z,6.00
2023-04-20T12:22:55.204Z,5.77
2023-04-20T12:25:24.471Z,5.60
2023-04-20T12:27:52.824Z,5.53
2023-04-20T12:30:21.222Z,6.03
2023-04-20T12:32:49.620Z,5.93
2023-04-20T12:35:18.131Z,6.13
2023-04-20T12:37:46.508Z,6.10
2023-04-20T12:40:16.488Z,5.40
2023-04-20T12:42:45.008Z,7.07
2023-04-20T12:45:13.471Z,5.63
2023-04-20T12:47:41.934Z,5.07
2023-04-20T12:50:10.682Z,5.03
2023-04-20T12:52:39.768Z,5.63
2023-04-20T12:55:08.683Z,6.13
2023-04-20T12:57:38.675Z,6.27
2023-04-20T13:00:08.409Z,5.17
2023-04-20T13:02:36.996Z,5.37
2023-04-20T13:05:05.848Z,6.17
2023-04-20T13:07:34.333Z,6.40
2023-04-20T13:10:02.837Z,6.17
2023-04-20T13:12:31.436Z,6.70
2023-04-20T13:15:01.301Z,7.00
2023-04-20T13:17:29.728Z,6.50
2023-04-20T13:19:58.178Z,7.00
2023-04-20T13:22:26.488Z,7.07
2023-04-20T13:24:54.948Z,8.10
2023-04-20T13:27:23.371Z,7.50
2023-04-20T13:29:51.781Z,7.33
2023-04-20T13:32:21.538Z,7.03
2023-04-20T13:34:49.882Z,7.00
2023-04-20T13:37:18.250Z,6.73
2023-04-20T13:39:46.610Z,7.03
2023-04-20T13:42:15.105Z,7.80
2023-04-20T13:44:43.508Z,6.40
2023-04-20T13:47:11.981Z,7.30
2023-04-20T13:49:41.828Z,7.17
2023-04-20T13:52:10.197Z,9.83
2023-04-20T13:54:38.638Z,7.13
2023-04-20T13:57:07.102Z,7.53
2023-04-20T13:59:35.544Z,7.10
2023-04-20T14:02:04.088Z,7.00
2023-04-20T14:04:32.598Z,8.13
2023-04-20T14:07:02.353Z,8.03
2023-04-20T14:09:32.542Z,8.13
2023-04-20T14:12:01.480Z,7.67
2023-04-20T14:14:29.896Z,10.07
2023-04-20T14:16:58.290Z,8.30
2023-04-20T14:19:26.651Z,9.53
2023-04-20T14:21:55.079Z,8.80
2023-04-20T14:24:24.841Z,8.80
2023-04-20T14:26:54.019Z,10.13
2023-04-20T14:29:22.444Z,9.33
2023-04-20T14:31:50.962Z,12.20
2023-04-20T14:34:19.664Z,11.53
2023-04-20T14:36:48.364Z,10.77
2023-04-20T14:39:16.849Z,10.97
2023-04-20T14:41:46.560Z,10.13
2023-04-20T14:44:14.948Z,10.40
2023-04-20T14:46:43.350Z,12.60
2023-04-20T14:49:11.781Z,12.00
2023-04-20T14:51:40.201Z,11.23
2023-04-20T14:54:08.632Z,11.53
2023-04-20T14:56:37.066Z,13.10
2023-04-20T14:59:06.874Z,12.07
2023-04-20T15:01:35.591Z,12.23
2023-04-20T15:04:04.191Z,11.10
2023-04-20T15:06:34.538Z,12.20
2023-04-20T15:09:03.152Z,13.27
2023-04-20T15:11:31.634Z,12.60
2023-04-20T15:14:00.002Z,13.47
2023-04-20T15:16:30.009Z,13.67
2023-04-20T15:18:58.425Z,13.87
2023-04-20T15:21:27.038Z,12.33
2023-04-20T15:23:55.403Z,13.17
2023-04-20T15:26:24.078Z,12.97
2023-04-20T15:28:52.849Z,13.43
2023-04-20T15:31:21.587Z,14.13
2023-04-20T15:33:51.341Z,15.13
2023-04-20T15:36:20.644Z,14.50
2023-04-20T15:38:49.044Z,13.73
2023-04-20T15:41:17.497Z,13.60
2023-04-20T15:43:46.132Z,15.20
2023-04-20T15:46:14.790Z,13.87
2023-04-20T15:48:43.330Z,14.50
2023-04-20T15:51:13.037Z,14.00
2023-04-20T15:53:41.896Z,13.03
2023-04-20T15:56:10.187Z,14.73
2023-04-20T15:58:38.681Z,14.00
2023-04-20T16:01:07.196Z,15.17
2023-04-20T16:03:35.827Z,13.47
2023-04-20T16:06:04.458Z,17.23
2023-04-20T16:08:34.276Z,13.60
2023-04-20T16:11:02.784Z,13.90
2023-04-20T16:13:31.275Z,14.40
2023-04-20T16:15:59.639Z,14.83
2023-04-20T16:18:28.031Z,15.00
2023-04-20T16:20:56.542Z,14.37
2023-04-20T16:23:24.986Z,15.27
2023-04-20T16:25:54.781Z,14.73
2023-04-20T16:28:23.207Z,14.47
2023-04-20T16:30:51.575Z,15.37
2023-04-20T16:33:20.361Z,14.57
2023-04-20T16:35:48.698Z,14.53
2023-04-20T16:38:17.070Z,17.03
2023-04-20T16:40:45.599Z,15.43
2023-04-20T16:43:15.387Z,13.97
2023-04-20T16:45:43.848Z,16.00
2023-04-20T16:48:12.190Z,15.67
2023-04-20T16:50:42.221Z,15.00
2023-04-20T16:53:11.028Z,14.23
2023-04-20T16:55:39.341Z,15.07
2023-04-20T16:58:07.662Z,14.33
2023-04-20T17:00:37.700Z,14.87
2023-04-20T17:03:10.528Z,14.13
2023-04-20T17:05:41.933Z,16.43
2023-04-20T17:08:10.691Z,15.43
2023-04-20T17:10:39.376Z,14.23
2023-04-20T17:13:07.955Z,15.17
2023-04-20T17:15:37.767Z,15.27
2023-04-20T17:18:07.004Z,15.00
2023-04-20T17:20:35.440Z,15.00
2023-04-20T17:23:03.950Z,16.03
2023-04-20T17:25:32.338Z,16.30
2023-04-20T17:28:00.874Z,14.60
2023-04-20T17:30:29.326Z,13.77
2023-04-20T17:33:00.688Z,16.20
2023-04-20T17:35:29.085Z,16.50
2023-04-20T17:37:57.565Z,16.63
2023-04-20T17:40:25.970Z,17.87
2023-04-20T17:42:54.417Z,20.97
2023-04-20T17:45:22.897Z,18.53
2023-04-20T17:47:53.719Z,15.63
2023-04-20T17:50:23.859Z,14.37
2023-04-20T17:52:52.590Z,15.10
2023-04-20T17:55:21.059Z,14.50
2023-04-20T17:57:49.501Z,14.70
2023-04-20T18:00:18.747Z,13.33
2023-04-20T18:02:47.244Z,13.97
2023-04-20T18:05:15.817Z,14.90
2023-04-20T18:07:45.830Z,14.53
2023-04-20T18:10:15.734Z,13.20
2023-04-20T18:12:44.949Z,13.27
2023-04-20T18:15:13.695Z,12.37
2023-04-20T18:17:42.409Z,11.93
2023-04-20T18:20:11.146Z,11.43
2023-04-20T18:22:39.556Z,12.87
2023-04-20T18:25:09.868Z,13.10
2023-04-20T18:27:38.433Z,12.37
2023-04-20T18:30:07.643Z,13.30
2023-04-20T18:32:37.978Z,12.67
2023-04-20T18:35:06.885Z,12.60
2023-04-20T18:37:35.310Z,13.40
2023-04-20T18:40:03.679Z,13.20
2023-04-20T18:42:33.433Z,13.43
2023-04-20T18:45:01.780Z,13.60
2023-04-20T18:47:30.159Z,12.80
2023-04-20T18:49:58.542Z,14.17
2023-04-20T18:52:26.903Z,12.80
2023-04-20T18:54:55.612Z,13.80
2023-04-20T18:57:26.544Z,13.70
2023-04-20T18:59:56.571Z,13.53
2023-04-20T19:02:25.143Z,14.43
2023-04-20T19:04:53.755Z,14.97
2023-04-20T19:07:22.227Z,14.10
2023-04-20T19:09:50.599Z,13.00
2023-04-20T19:12:19.120Z,16.10
2023-04-20T19:14:49.242Z,16.03
2023-04-20T19:17:19.322Z,17.63
2023-04-20T19:19:48.269Z,13.27
2023-04-20T19:22:16.694Z,14.50
2023-04-20T19:24:45.035Z,13.80
2023-04-20T19:27:13.422Z,13.90
2023-04-20T19:29:41.959Z,16.37
2023-04-20T19:32:10.513Z,13.50
2023-04-20T19:34:41.558Z,12.73
2023-04-20T19:37:10.088Z,12.37
2023-04-20T19:39:38.428Z,12.97
2023-04-20T19:42:07.822Z,12.00
2023-04-20T19:44:36.550Z,13.73
2023-04-20T19:47:05.022Z,11.70
2023-04-20T19:49:33.477Z,12.00
2023-04-20T19:52:03.213Z,12.10
2023-04-20T19:54:31.586Z,11.27
2023-04-20T19:56:59.930Z,11.30
2023-04-20T19:59:29.958Z,12.27
2023-04-20T20:01:58.526Z,11.40
2023-04-20T20:04:27.244Z,11.60
2023-04-20T20:06:55.651Z,11.07
2023-04-20T20:09:25.733Z,11.00
2023-04-20T20:11:54.451Z,10.97
2023-04-20T20:14:22.945Z,9.73
2023-04-20T20:16:51.361Z,9.23
2023-04-20T20:19:22.138Z,9.80
2023-04-20T20:21:50.656Z,10.90
2023-04-20T20:24:19.007Z,9.97
2023-04-20T20:26:48.818Z,9.60
2023-04-20T20:29:17.490Z,9.30
2023-04-20T20:31:46.321Z,8.97
2023-04-20T20:34:14.806Z,8.97
2023-04-20T20:36:46.381Z,8.10
2023-04-20T20:39:16.036Z,8.60
2023-04-20T20:41:46.488Z,7.80
2023-04-20T20:44:17.811Z,9.27
2023-04-20T20:46:46.661Z,8.60
2023-04-20T20:49:15.129Z,8.50
2023-04-20T20:51:43.520Z,8.50
2023-04-20T20:54:12.152Z,8.10
2023-04-20T20:56:40.615Z,7.27
2023-04-20T20:59:09.062Z,7.67
2023-04-20T21:01:39.030Z,8.33
2023-04-20T21:04:07.676Z,7.30
2023-04-20T21:06:36.226Z,10.73
2023-04-20T21:09:05.005Z,7.00
2023-04-20T21:11:33.485Z,6.90
2023-04-20T21:14:03.068Z,7.33
2023-04-20T21:16:31.407Z,7.20
2023-04-20T21:19:01.358Z,7.30
2023-04-20T21:21:29.737Z,7.93
2023-04-20T21:23:58.113Z,7.40
2023-04-20T21:26:26.545Z,7.80
2023-04-20T21:28:54.928Z,7.17
2023-04-20T21:31:23.254Z,7.03
2023-04-20T21:33:51.606Z,6.83
2023-04-20T21:36:21.304Z,7.03
2023-04-20T21:38:49.803Z,6.40
2023-04-20T21:41:19.227Z,7.23
2023-04-20T21:43:47.709Z,6.97
2023-04-20T21:46:16.603Z,6.73
2023-04-20T21:48:45.050Z,6.87
2023-04-20T21:51:16.289Z,6.70
2023-04-20T21:53:46.287Z,6.77
2023-04-20T21:56:15.330Z,7.23
2023-04-20T21:58:43.768Z,7.67
2023-04-20T22:01:12.167Z,7.07
2023-04-20T22:03:40.643Z,6.50
2023-04-20T22:06:09.275Z,6.17
2023-04-20T22:08:39.667Z,6.40
2023-04-20T22:11:09.654Z,6.30
2023-04-20T22:13:38.542Z,6.50
2023-04-20T22:16:07.400Z,6.37
2023-04-20T22:18:35.725Z,6.97
2023-04-20T22:21:04.346Z,6.90
2023-04-20T22:23:32.653Z,7.70
2023-04-20T22:26:01.053Z,5.90
2023-04-20T22:28:30.835Z,6.50
2023-04-20T22:30:59.216Z,6.30
2023-04-20T22:33:27.690Z,6.20
2023-04-20T22:35:56.152Z,6.70
2023-04-20T22:38:24.561Z,5.83
2023-04-20T22:40:53.642Z,7.37
2023-04-20T22:43:22.298Z,6.03
2023-04-20T22:45:52.174Z,6.10
2023-04-20T22:48:20.685Z,6.30
2023-04-20T22:50:49.214Z,6.50
2023-04-20T22:53:17.629Z,6.27
2023-04-20T22:55:46.048Z,5.90
2023-04-20T22:58:14.429Z,6.70
2023-04-20T23:00:42.797Z,6.10
2023-04-20T23:03:12.743Z,6.73
2023-04-20T23:05:44.486Z,6.13
2023-04-20T23:08:13.694Z,5.30
2023-04-20T23:10:45.437Z,5.13
2023-04-20T23:13:16.748Z,5.63
2023-04-20T23:15:45.359Z,5.97
2023-04-20T23:18:15.172Z,6.80
2023-04-20T23:20:43.583Z,6.53
2023-04-20T23:23:11.980Z,8.33
2023-04-20T23:25:40.455Z,6.90
2023-04-20T23:28:08.873Z,6.50
2023-04-20T23:30:37.377Z,5.70
2023-04-20T23:33:05.946Z,6.07
2023-04-20T23:35:36.045Z,5.93
2023-04-20T23:38:04.755Z,6.57
2023-04-20T23:40:33.421Z,6.67
2023-04-20T23:43:01.830Z,6.27
2023-04-20T23:45:30.308Z,5.93
2023-04-20T23:47:58.852Z,5.57
2023-04-20T23:50:27.280Z,6.80
2023-04-20T23:52:57.084Z,5.73
2023-04-20T23:55:25.613Z,6.47
2023-04-20T23:57:53.955Z,6.90
